Time;durP1;ratioP1;P1;durP2;ratioP2;P2;SDS_P1;SDS_P2;PMS_P1;PMS_P2;Temp;Humidity;BMP_temperature;BMP_pressure;BME280_temperature;BME280_humidity;BME280_pressure;Samples;Min_cycle;Max_cycle;Signal;HPM_P1;HPM_P2
2022/12/23 00:01:58;;;;;;;9.97;4.10;;;;;;;;;;6120570;23;20396;-60
2022/12/23 00:04:27;;;;;;;10.07;4.78;;;;;;;;;;6113390;23;20072;-60
2022/12/23 00:06:54;;;;;;;10.52;4.80;;;;;;;;;;6125786;23;20068;-60
2022/12/23 00:09:22;;;;;;;12.43;4.93;;;;;;;;;;6115449;23;20124;-60
2022/12/23 00:17:21;;;;;;;11.35;5.10;;;;;;;;;;6108795;23;20573;-60
2022/12/23 00:19:51;;;;;;;15.18;4.55;;;;;;;;;;6121141;23;20599;-61
2022/12/23 00:22:18;;;;;;;11.88;5.50;;;;;;;;;;6126189;23;20047;-60
2022/12/23 00:24:47;;;;;;;11.50;5.28;;;;;;;;;;6122006;23;20056;-60
2022/12/23 00:27:16;;;;;;;11.43;5.27;;;;;;;;;;6130914;23;20021;-60
2022/12/23 00:29:43;;;;;;;11.10;5.20;;;;;;;;;;6119950;23;20017;-60
2022/12/23 00:32:11;;;;;;;12.02;5.30;;;;;;;;;;6117977;23;20059;-60
2022/12/23 00:34:39;;;;;;;10.82;5.45;;;;;;;;;;6129618;23;20041;-60
2022/12/23 00:37:08;;;;;;;12.38;4.97;;;;;;;;;;6119828;23;20174;-60
2022/12/23 00:45:15;;;;;;;11.30;5.20;;;;;;;;;;6103799;23;20045;-59
2022/12/23 00:50:28;;;;;;;10.73;3.90;;;;;;;;;;6127102;23;20009;-60
2022/12/23 00:52:57;;;;;;;9.30;3.90;;;;;;;;;;6116598;23;20446;-60
2022/12/23 00:55:25;;;;;;;10.23;3.72;;;;;;;;;;6125458;23;20413;-59
2022/12/23 00:57:53;;;;;;;7.43;3.67;;;;;;;;;;6109872;23;20369;-59
2022/12/23 01:05:35;;;;;;;10.57;3.22;;;;;;;;;;6122861;23;20444;-60
2022/12/23 01:05:57;;;;;;;7.43;3.30;;;;;;;;;;6100152;23;20018;-60
2022/12/23 01:08:27;;;;;;;6.25;2.28;;;;;;;;;;6131215;23;20018;-59
2022/12/23 01:10:55;;;;;;;6.90;3.08;;;;;;;;;;6124236;23;20539;-60
2022/12/23 01:13:22;;;;;;;7.50;3.05;;;;;;;;;;6125766;23;20100;-56
2022/12/23 01:15:50;;;;;;;7.30;2.90;;;;;;;;;;6114977;23;20045;-60
2022/12/23 01:18:18;;;;;;;6.10;2.40;;;;;;;;;;6122685;23;20017;-60
2022/12/23 01:20:45;;;;;;;5.88;2.53;;;;;;;;;;6126749;23;20068;-60
2022/12/23 01:23:16;;;;;;;8.68;2.95;;;;;;;;;;6122497;23;20096;-60
2022/12/23 01:25:46;;;;;;;6.95;2.63;;;;;;;;;;6128578;23;20029;-60
2022/12/23 01:28:14;;;;;;;7.28;2.85;;;;;;;;;;6108292;23;20013;-60
2022/12/23 01:30:42;;;;;;;9.20;3.33;;;;;;;;;;6124667;23;20052;-60
2022/12/23 01:33:13;;;;;;;6.88;2.80;;;;;;;;;;6126004;23;20519;-60
2022/12/23 01:35:41;;;;;;;7.78;3.08;;;;;;;;;;6124601;23;20045;-60
2022/12/23 01:38:09;;;;;;;7.15;3.25;;;;;;;;;;6113543;23;20763;-60
2022/12/23 01:40:36;;;;;;;6.35;2.65;;;;;;;;;;6130819;23;20084;-60
2022/12/23 01:43:04;;;;;;;6.20;2.33;;;;;;;;;;6121622;23;20018;-59
2022/12/23 01:45:32;;;;;;;6.22;2.58;;;;;;;;;;6128157;23;20084;-60
2022/12/23 01:48:01;;;;;;;7.38;2.75;;;;;;;;;;6117094;23;20505;-60
2022/12/23 01:50:31;;;;;;;7.30;2.63;;;;;;;;;;6126261;23;20411;-60
2022/12/23 01:53:00;;;;;;;7.70;2.88;;;;;;;;;;6122205;23;20052;-60
2022/12/23 01:55:36;;;;;;;5.57;2.13;;;;;;;;;;6128236;23;20018;-60
2022/12/23 01:58:08;;;;;;;5.95;2.20;;;;;;;;;;6119293;23;20113;-59
2022/12/23 02:11:55;;;;;;;4.82;1.55;;;;;;;;;;6118422;23;20080;-60
2022/12/23 02:17:17;;;;;;;4.82;1.73;;;;;;;;;;6129646;23;20013;-60
2022/12/23 02:20:07;;;;;;;6.05;2.22;;;;;;;;;;6094007;23;20014;-60
2022/12/23 02:22:45;;;;;;;6.33;2.60;;;;;;;;;;6119977;23;20064;-59
2022/12/23 02:25:36;;;;;;;5.72;2.42;;;;;;;;;;6126046;23;20018;-60
2022/12/23 02:28:13;;;;;;;7.22;2.78;;;;;;;;;;6120421;23;20392;-60
2022/12/23 02:30:45;;;;;;;6.40;2.65;;;;;;;;;;6129013;23;20677;-60
2022/12/23 02:33:18;;;;;;;6.65;2.70;;;;;;;;;;6115456;23;20022;-60
2022/12/23 02:35:50;;;;;;;7.87;3.10;;;;;;;;;;6124903;23;20576;-60
2022/12/23 02:38:23;;;;;;;7.78;3.08;;;;;;;;;;6122658;23;20089;-60
2022/12/23 02:40:55;;;;;;;9.15;3.33;;;;;;;;;;6129342;23;20018;-60
2022/12/23 02:43:26;;;;;;;7.43;2.97;;;;;;;;;;6111286;23;20021;-57
2022/12/23 02:45:57;;;;;;;7.28;3.08;;;;;;;;;;6133744;23;20047;-60
2022/12/23 02:48:30;;;;;;;9.13;2.93;;;;;;;;;;6113434;23;20029;-60
2022/12/23 02:51:00;;;;;;;7.35;2.22;;;;;;;;;;6126613;23;20092;-60
2022/12/23 02:53:32;;;;;;;6.47;2.50;;;;;;;;;;6134221;23;20437;-60
2022/12/23 02:56:04;;;;;;;6.43;2.50;;;;;;;;;;6130374;23;20063;-60
2022/12/23 02:58:34;;;;;;;7.10;2.50;;;;;;;;;;6119687;23;20420;-60
2022/12/23 03:01:05;;;;;;;7.90;2.70;;;;;;;;;;6128935;23;20052;-60
2022/12/23 03:03:34;;;;;;;6.85;3.00;;;;;;;;;;6116579;23;20533;-60
2022/12/23 03:06:06;;;;;;;6.47;2.25;;;;;;;;;;6126179;23;20017;-60
2022/12/23 03:08:40;;;;;;;7.43;2.60;;;;;;;;;;6120339;23;20362;-60
2022/12/23 03:11:10;;;;;;;8.15;2.88;;;;;;;;;;6132097;23;20104;-60
2022/12/23 03:13:48;;;;;;;7.43;2.00;;;;;;;;;;6119607;23;20017;-60
2022/12/23 03:16:21;;;;;;;6.18;2.47;;;;;;;;;;6129718;23;20064;-60
2022/12/23 03:18:54;;;;;;;9.48;1.92;;;;;;;;;;6126401;23;20020;-60
2022/12/23 03:21:24;;;;;;;7.55;2.78;;;;;;;;;;6119794;23;20053;-60
2022/12/23 03:23:54;;;;;;;7.78;2.72;;;;;;;;;;6128817;23;20345;-60
2022/12/23 03:26:26;;;;;;;9.73;3.27;;;;;;;;;;6119609;23;20209;-60
2022/12/23 03:28:55;;;;;;;9.15;2.90;;;;;;;;;;6131518;23;20021;-60
2022/12/23 03:31:26;;;;;;;6.45;2.40;;;;;;;;;;6125969;23;20105;-60
2022/12/23 03:33:57;;;;;;;8.35;2.90;;;;;;;;;;6118111;23;20021;-60
2022/12/23 03:36:29;;;;;;;10.05;2.60;;;;;;;;;;6120955;23;20468;-60
2022/12/23 03:38:57;;;;;;;7.97;2.50;;;;;;;;;;6130130;23;20029;-60
2022/12/23 03:41:27;;;;;;;9.15;2.80;;;;;;;;;;6117554;23;20022;-60
2022/12/23 03:43:57;;;;;;;9.70;3.25;;;;;;;;;;6127821;23;20044;-58
2022/12/23 03:46:30;;;;;;;9.80;2.50;;;;;;;;;;6128541;23;20097;-59
2022/12/23 03:49:00;;;;;;;8.65;2.60;;;;;;;;;;6124609;23;20017;-58
2022/12/23 03:51:31;;;;;;;8.43;2.60;;;;;;;;;;6123201;23;20048;-58
2022/12/23 03:53:59;;;;;;;8.98;2.35;;;;;;;;;;6133527;23;20072;-58
2022/12/23 03:56:28;;;;;;;8.80;2.63;;;;;;;;;;6115252;23;20049;-59
2022/12/23 03:58:58;;;;;;;7.35;2.20;;;;;;;;;;6128354;23;20100;-58
2022/12/23 04:01:33;;;;;;;8.25;2.40;;;;;;;;;;6123961;23;20020;-58
2022/12/23 04:04:08;;;;;;;7.03;2.23;;;;;;;;;;6118109;23;20360;-57
2022/12/23 04:06:39;;;;;;;8.43;2.33;;;;;;;;;;6082079;23;20623;-58
2022/12/23 04:09:07;;;;;;;7.85;2.28;;;;;;;;;;6120431;23;20041;-58
2022/12/23 04:11:35;;;;;;;7.85;1.98;;;;;;;;;;6136814;23;20041;-58
2022/12/23 04:14:03;;;;;;;7.22;2.38;;;;;;;;;;6121289;23;20853;-56
2022/12/23 04:16:32;;;;;;;7.83;2.40;;;;;;;;;;6125861;23;20028;-58
2022/12/23 04:18:59;;;;;;;7.57;2.33;;;;;;;;;;6123349;23;20017;-58
2022/12/23 04:21:28;;;;;;;7.85;1.98;;;;;;;;;;6125262;23;20021;-58
2022/12/23 04:23:56;;;;;;;7.78;2.85;;;;;;;;;;6127538;23;20064;-58
2022/12/23 04:26:24;;;;;;;6.82;2.28;;;;;;;;;;6126860;23;20096;-59
2022/12/23 04:28:51;;;;;;;7.53;2.00;;;;;;;;;;6124652;23;20650;-58
2022/12/23 04:31:19;;;;;;;11.80;2.75;;;;;;;;;;6126063;23;20037;-58
2022/12/23 04:33:48;;;;;;;10.52;3.00;;;;;;;;;;6120345;23;20018;-58
2022/12/23 04:36:16;;;;;;;8.32;2.70;;;;;;;;;;6117993;23;20521;-60
2022/12/23 04:38:44;;;;;;;8.93;2.70;;;;;;;;;;6118246;23;20022;-59
2022/12/23 04:41:11;;;;;;;9.37;2.83;;;;;;;;;;6125738;23;20325;-60
2022/12/23 04:43:39;;;;;;;9.88;2.80;;;;;;;;;;6111428;23;20018;-60
2022/12/23 04:46:07;;;;;;;8.32;2.90;;;;;;;;;;6130906;23;20084;-60
2022/12/23 04:48:35;;;;;;;10.50;3.28;;;;;;;;;;6114299;23;20608;-60
2022/12/23 04:51:04;;;;;;;7.88;2.65;;;;;;;;;;6122527;23;20025;-57
2022/12/23 04:53:32;;;;;;;7.23;2.50;;;;;;;;;;6116379;23;20045;-60
2022/12/23 04:55:59;;;;;;;7.45;2.08;;;;;;;;;;6122818;23;20036;-60
2022/12/23 04:58:27;;;;;;;7.10;1.92;;;;;;;;;;6116546;23;20022;-60
2022/12/23 05:01:00;;;;;;;9.48;2.13;;;;;;;;;;6128868;23;20052;-60
2022/12/23 05:03:28;;;;;;;7.97;2.33;;;;;;;;;;6119957;23;20088;-60
2022/12/23 05:05:56;;;;;;;8.23;2.37;;;;;;;;;;6117769;23;20445;-60
2022/12/23 05:08:25;;;;;;;7.10;2.10;;;;;;;;;;6112887;23;20021;-60
2022/12/23 05:10:53;;;;;;;10.13;2.15;;;;;;;;;;6124807;23;20052;-60
2022/12/23 05:13:21;;;;;;;7.82;2.17;;;;;;;;;;6121005;23;20021;-60
2022/12/23 05:15:49;;;;;;;9.50;2.30;;;;;;;;;;6127269;23;20296;-61
2022/12/23 05:18:17;;;;;;;7.27;1.90;;;;;;;;;;6121922;23;20030;-61
2022/12/23 05:20:44;;;;;;;7.50;2.10;;;;;;;;;;6122248;23;20589;-60
2022/12/23 05:23:12;;;;;;;7.88;1.92;;;;;;;;;;6122572;23;20468;-61
2022/12/23 05:25:49;;;;;;;9.85;2.42;;;;;;;;;;6122928;23;20023;-60
2022/12/23 05:28:17;;;;;;;7.18;1.60;;;;;;;;;;6125446;23;20014;-60
2022/12/23 05:30:45;;;;;;;9.20;2.40;;;;;;;;;;6124538;23;20021;-60
2022/12/23 05:33:13;;;;;;;7.57;2.30;;;;;;;;;;6115158;23;20422;-60
2022/12/23 05:35:41;;;;;;;7.60;1.80;;;;;;;;;;6121136;23;20026;-61
2022/12/23 05:38:09;;;;;;;6.50;1.90;;;;;;;;;;6126552;23;20017;-60
2022/12/23 05:40:36;;;;;;;9.40;2.30;;;;;;;;;;6124301;23;20239;-61
2022/12/23 05:43:05;;;;;;;6.83;2.03;;;;;;;;;;6126555;23;20344;-61
2022/12/23 05:45:35;;;;;;;8.10;2.42;;;;;;;;;;6124058;23;20109;-61
2022/12/23 05:48:02;;;;;;;8.80;2.40;;;;;;;;;;6121604;23;20014;-61
2022/12/23 05:50:30;;;;;;;8.57;2.70;;;;;;;;;;6124397;23;20046;-61
2022/12/23 05:52:57;;;;;;;8.93;2.03;;;;;;;;;;6123809;23;20010;-61
2022/12/23 05:55:26;;;;;;;7.10;1.90;;;;;;;;;;6120669;23;20512;-61
2022/12/23 05:57:53;;;;;;;7.32;2.10;;;;;;;;;;6129432;23;20024;-61
2022/12/23 06:00:24;;;;;;;6.72;1.80;;;;;;;;;;6126911;23;20072;-61
2022/12/23 06:02:52;;;;;;;5.63;1.23;;;;;;;;;;6119265;23;20021;-61
2022/12/23 06:05:21;;;;;;;5.88;1.70;;;;;;;;;;6122821;23;20376;-61
2022/12/23 06:07:48;;;;;;;8.10;1.70;;;;;;;;;;6121019;23;20037;-61
2022/12/23 06:10:16;;;;;;;8.85;2.08;;;;;;;;;;6122915;23;20017;-61
2022/12/23 06:12:44;;;;;;;6.30;1.60;;;;;;;;;;6123549;23;20019;-60
2022/12/23 06:15:12;;;;;;;5.90;1.45;;;;;;;;;;6131188;23;20014;-61
2022/12/23 06:17:40;;;;;;;6.47;1.55;;;;;;;;;;6118105;23;20104;-61
2022/12/23 06:20:09;;;;;;;8.10;1.33;;;;;;;;;;6126303;23;20017;-60
2022/12/23 06:22:46;;;;;;;5.60;1.45;;;;;;;;;;6125902;23;20309;-61
2022/12/23 06:25:14;;;;;;;6.88;1.63;;;;;;;;;;6128302;23;20049;-61
2022/12/23 06:27:42;;;;;;;5.60;1.20;;;;;;;;;;6127572;23;20290;-61
2022/12/23 06:30:10;;;;;;;6.63;1.20;;;;;;;;;;6125763;23;20087;-62
2022/12/23 06:32:38;;;;;;;7.00;1.23;;;;;;;;;;6121549;23;20063;-62
2022/12/23 06:35:08;;;;;;;5.05;0.90;;;;;;;;;;6116042;23;20041;-62
2022/12/23 06:37:36;;;;;;;5.65;1.15;;;;;;;;;;6122984;23;20052;-61
2022/12/23 06:40:04;;;;;;;6.88;1.42;;;;;;;;;;6124479;23;20017;-61
2022/12/23 06:42:31;;;;;;;6.68;1.63;;;;;;;;;;6126100;23;20013;-63
2022/12/23 06:44:59;;;;;;;5.47;1.67;;;;;;;;;;6126706;23;20060;-62
2022/12/23 06:47:27;;;;;;;5.32;1.40;;;;;;;;;;6124499;23;20021;-61
2022/12/23 06:49:55;;;;;;;5.63;1.42;;;;;;;;;;6120737;23;20856;-62
2022/12/23 06:52:24;;;;;;;7.50;1.58;;;;;;;;;;6128877;23;20017;-62
2022/12/23 06:54:51;;;;;;;7.03;1.27;;;;;;;;;;6117798;23;20009;-62
2022/12/23 06:57:19;;;;;;;7.63;1.60;;;;;;;;;;6129045;23;20068;-62
2022/12/23 06:59:47;;;;;;;5.90;1.60;;;;;;;;;;6117291;23;20338;-62
2022/12/23 07:02:15;;;;;;;5.40;1.35;;;;;;;;;;6128166;23;20390;-62
2022/12/23 07:04:43;;;;;;;6.72;1.83;;;;;;;;;;6121177;23;20499;-60
2022/12/23 07:07:11;;;;;;;4.80;0.95;;;;;;;;;;6127792;23;20045;-61
2022/12/23 07:09:40;;;;;;;8.53;1.50;;;;;;;;;;6125589;23;20025;-62
2022/12/23 07:12:08;;;;;;;6.78;1.40;;;;;;;;;;6124256;23;20022;-61
2022/12/23 07:14:35;;;;;;;6.90;1.50;;;;;;;;;;6128502;23;20065;-62
2022/12/23 07:17:03;;;;;;;5.90;1.50;;;;;;;;;;6126749;23;20021;-61
2022/12/23 07:19:31;;;;;;;6.05;1.33;;;;;;;;;;6125521;23;20348;-62
2022/12/23 07:21:59;;;;;;;5.43;1.10;;;;;;;;;;6123971;23;20073;-62
2022/12/23 07:24:27;;;;;;;7.55;1.60;;;;;;;;;;6124018;23;20022;-62
2022/12/23 07:26:56;;;;;;;5.78;1.60;;;;;;;;;;6126479;23;20785;-62
2022/12/23 07:29:23;;;;;;;5.70;1.45;;;;;;;;;;6123462;23;20045;-61
2022/12/23 07:31:51;;;;;;;6.30;1.30;;;;;;;;;;6125675;23;20089;-61
2022/12/23 07:34:19;;;;;;;4.87;1.37;;;;;;;;;;6122170;23;20014;-61
2022/12/23 07:36:47;;;;;;;6.22;1.30;;;;;;;;;;6120733;23;20470;-62
2022/12/23 07:39:14;;;;;;;4.35;0.70;;;;;;;;;;6121298;23;20037;-62
2022/12/23 07:41:44;;;;;;;6.80;1.20;;;;;;;;;;6126529;23;20092;-58
2022/12/23 07:44:14;;;;;;;5.25;0.75;;;;;;;;;;6130850;23;20701;-61
2022/12/23 07:46:42;;;;;;;3.93;0.60;;;;;;;;;;6120108;23;20052;-62
2022/12/23 07:49:10;;;;;;;4.00;0.90;;;;;;;;;;6120311;23;20017;-62
2022/12/23 07:51:38;;;;;;;4.35;0.98;;;;;;;;;;6120396;23;20401;-62
2022/12/23 07:54:06;;;;;;;3.78;0.50;;;;;;;;;;6124050;23;20109;-62
2022/12/23 07:56:34;;;;;;;4.35;0.60;;;;;;;;;;6113711;23;20757;-62
2022/12/23 07:59:01;;;;;;;6.07;0.80;;;;;;;;;;6130880;23;20060;-61
2022/12/23 08:01:30;;;;;;;4.00;0.73;;;;;;;;;;6118723;23;20357;-62
2022/12/23 08:03:58;;;;;;;4.40;0.90;;;;;;;;;;6126500;23;20021;-61
2022/12/23 08:06:26;;;;;;;5.45;1.13;;;;;;;;;;6124572;23;20488;-63
2022/12/23 08:08:53;;;;;;;4.65;1.15;;;;;;;;;;6126718;23;20014;-62
2022/12/23 08:11:21;;;;;;;4.57;1.13;;;;;;;;;;6126872;23;20025;-62
2022/12/23 08:13:51;;;;;;;4.80;1.10;;;;;;;;;;6130808;23;20380;-62
2022/12/23 08:16:19;;;;;;;4.90;1.10;;;;;;;;;;6127580;23;20681;-62
2022/12/23 08:18:48;;;;;;;4.65;1.15;;;;;;;;;;6112674;23;20331;-62
2022/12/23 08:21:18;;;;;;;4.00;1.00;;;;;;;;;;6119492;23;20028;-62
2022/12/23 08:23:47;;;;;;;4.67;1.17;;;;;;;;;;6128790;23;20017;-62
2022/12/23 08:26:15;;;;;;;4.50;1.00;;;;;;;;;;6125610;23;20014;-63
2022/12/23 08:28:43;;;;;;;5.07;1.25;;;;;;;;;;6125125;23;20345;-62
2022/12/23 08:31:12;;;;;;;4.85;1.10;;;;;;;;;;6125769;23;20020;-62
2022/12/23 08:33:42;;;;;;;4.43;0.90;;;;;;;;;;6125868;23;20013;-62
2022/12/23 08:36:13;;;;;;;4.53;1.20;;;;;;;;;;6125540;23;20064;-62
2022/12/23 08:38:49;;;;;;;3.92;0.75;;;;;;;;;;6113662;23;20025;-62
2022/12/23 08:41:19;;;;;;;3.05;0.57;;;;;;;;;;6134948;23;20021;-62
2022/12/23 08:43:46;;;;;;;3.45;0.20;;;;;;;;;;6113823;23;20445;-62
2022/12/23 08:46:14;;;;;;;2.92;0.30;;;;;;;;;;6123060;23;20044;-62
2022/12/23 08:48:42;;;;;;;2.70;0.50;;;;;;;;;;6118264;23;20021;-62
2022/12/23 08:51:18;;;;;;;4.32;0.43;;;;;;;;;;6124364;23;20009;-62
2022/12/23 08:53:46;;;;;;;2.63;0.45;;;;;;;;;;6124128;23;20473;-62
2022/12/23 08:56:16;;;;;;;2.40;0.28;;;;;;;;;;6125574;23;20448;-62
2022/12/23 08:58:45;;;;;;;1.83;0.20;;;;;;;;;;6126797;23;20104;-61
2022/12/23 09:01:14;;;;;;;2.50;0.47;;;;;;;;;;6119437;23;20013;-62
2022/12/23 09:03:42;;;;;;;2.65;0.50;;;;;;;;;;6117194;23;20028;-62
2022/12/23 09:06:11;;;;;;;3.20;0.40;;;;;;;;;;6115052;23;20416;-61
2022/12/23 09:08:42;;;;;;;3.45;0.47;;;;;;;;;;6131377;23;20033;-62
2022/12/23 09:11:10;;;;;;;2.35;0.30;;;;;;;;;;6128864;23;20044;-62
2022/12/23 09:13:37;;;;;;;5.03;0.40;;;;;;;;;;6122442;23;20440;-62
2022/12/23 09:16:05;;;;;;;2.15;0.30;;;;;;;;;;6128894;23;20045;-62
2022/12/23 09:18:33;;;;;;;4.25;0.35;;;;;;;;;;6125978;23;20032;-62
2022/12/23 09:21:03;;;;;;;1.77;0.40;;;;;;;;;;6120154;23;20117;-63
2022/12/23 09:23:31;;;;;;;2.53;0.40;;;;;;;;;;6124970;23;20013;-62
2022/12/23 09:26:05;;;;;;;1.90;0.30;;;;;;;;;;6126908;23;20117;-63
2022/12/23 09:28:33;;;;;;;2.67;0.43;;;;;;;;;;6111912;23;20403;-62
2022/12/23 09:31:06;;;;;;;2.90;0.38;;;;;;;;;;6124166;23;20096;-62
2022/12/23 09:33:34;;;;;;;2.65;0.50;;;;;;;;;;6107593;23;20100;-62
2022/12/23 09:36:02;;;;;;;3.33;0.50;;;;;;;;;;6131970;23;20017;-62
2022/12/23 09:38:29;;;;;;;3.63;0.60;;;;;;;;;;6115893;23;20480;-62
2022/12/23 09:41:01;;;;;;;4.15;0.52;;;;;;;;;;6129708;23;20017;-62
2022/12/23 09:43:36;;;;;;;5.63;0.80;;;;;;;;;;6112908;23;20960;-62
2022/12/23 09:46:08;;;;;;;3.70;0.65;;;;;;;;;;6116077;23;20014;-62
2022/12/23 09:48:39;;;;;;;3.55;0.68;;;;;;;;;;6126830;23;20864;-62
2022/12/23 09:51:07;;;;;;;5.80;0.77;;;;;;;;;;6119331;23;20104;-62
2022/12/23 09:53:42;;;;;;;3.63;0.90;;;;;;;;;;6116332;23;20013;-62
2022/12/23 09:56:15;;;;;;;3.70;0.82;;;;;;;;;;6119467;23;20018;-62
2022/12/23 09:58:47;;;;;;;5.75;1.05;;;;;;;;;;6127300;23;20064;-62
2022/12/23 10:01:18;;;;;;;4.32;0.75;;;;;;;;;;6116406;23;20399;-62
2022/12/23 10:04:07;;;;;;;4.60;1.03;;;;;;;;;;6117350;23;20350;-62
2022/12/23 10:06:44;;;;;;;5.32;1.50;;;;;;;;;;6102767;23;20037;-62
2022/12/23 10:09:13;;;;;;;5.97;1.10;;;;;;;;;;6120011;23;20389;-62
2022/12/23 10:11:45;;;;;;;5.68;1.30;;;;;;;;;;6121272;23;20673;-62
2022/12/23 10:14:19;;;;;;;5.38;1.30;;;;;;;;;;6129248;23;20044;-63
2022/12/23 10:16:50;;;;;;;8.33;1.43;;;;;;;;;;6121134;23;20560;-63
2022/12/23 10:19:20;;;;;;;6.85;1.63;;;;;;;;;;6118321;23;20021;-63
2022/12/23 10:21:49;;;;;;;5.10;1.48;;;;;;;;;;6125695;23;20109;-63
2022/12/23 10:24:20;;;;;;;5.65;1.60;;;;;;;;;;6123237;23;20091;-63
2022/12/23 10:26:51;;;;;;;6.55;1.65;;;;;;;;;;6128217;23;20064;-63
2022/12/23 10:29:21;;;;;;;7.27;1.70;;;;;;;;;;6119868;23;20020;-63
2022/12/23 10:31:55;;;;;;;6.60;1.52;;;;;;;;;;6133341;23;20017;-63
2022/12/23 10:34:29;;;;;;;6.82;1.42;;;;;;;;;;6124937;23;20479;-59
2022/12/23 10:37:06;;;;;;;6.13;1.20;;;;;;;;;;6121991;23;20013;-62
2022/12/23 10:39:37;;;;;;;6.70;1.73;;;;;;;;;;6130690;23;20021;-63
2022/12/23 10:42:08;;;;;;;5.57;1.80;;;;;;;;;;6125679;23;20542;-62
2022/12/23 10:44:46;;;;;;;6.93;1.70;;;;;;;;;;6135464;23;20020;-62
2022/12/23 10:47:18;;;;;;;7.78;1.70;;;;;;;;;;6125796;23;20014;-62
2022/12/23 10:49:53;;;;;;;7.10;1.80;;;;;;;;;;6135126;23;20017;-62
2022/12/23 10:52:23;;;;;;;6.95;1.88;;;;;;;;;;6124966;23;20076;-63
2022/12/23 10:54:51;;;;;;;6.93;1.90;;;;;;;;;;6118110;23;20026;-62
2022/12/23 10:57:19;;;;;;;9.65;1.80;;;;;;;;;;6131702;23;20014;-63
2022/12/23 10:59:48;;;;;;;8.52;1.60;;;;;;;;;;6116367;23;20022;-62
2022/12/23 11:02:28;;;;;;;5.90;1.60;;;;;;;;;;6108803;23;20029;-62
2022/12/23 11:04:56;;;;;;;6.40;1.42;;;;;;;;;;6095332;23;20345;-62
2022/12/23 11:07:26;;;;;;;8.60;1.37;;;;;;;;;;6127128;23;20550;-62
2022/12/23 11:10:16;;;;;;;7.70;0.98;;;;;;;;;;6122219;23;20048;-62
2022/12/23 11:12:46;;;;;;;8.05;1.15;;;;;;;;;;6123432;23;20492;-62
2022/12/23 11:15:30;;;;;;;6.10;1.10;;;;;;;;;;6130215;23;20013;-62
2022/12/23 11:18:03;;;;;;;9.35;1.60;;;;;;;;;;6127964;23;20555;-63
2022/12/23 11:20:31;;;;;;;18.57;1.90;;;;;;;;;;6121461;23;20060;-62
2022/12/23 11:23:00;;;;;;;9.13;1.15;;;;;;;;;;6131547;23;20048;-62
2022/12/23 11:25:30;;;;;;;9.40;1.58;;;;;;;;;;6123837;23;20327;-62
2022/12/23 11:27:59;;;;;;;9.35;1.13;;;;;;;;;;6127795;23;20465;-62
2022/12/23 11:30:28;;;;;;;18.83;1.50;;;;;;;;;;6122132;23;20490;-62
2022/12/23 11:32:57;;;;;;;13.63;1.27;;;;;;;;;;6122810;23;20266;-62
2022/12/23 11:35:26;;;;;;;10.43;1.77;;;;;;;;;;6124148;23;20037;-62
2022/12/23 11:37:55;;;;;;;11.20;1.08;;;;;;;;;;6123818;23;20013;-62
2022/12/23 11:40:25;;;;;;;9.02;0.95;;;;;;;;;;6131025;23;20021;-62
2022/12/23 11:42:55;;;;;;;17.20;1.92;;;;;;;;;;6121968;23;20017;-62
2022/12/23 11:45:25;;;;;;;6.30;1.00;;;;;;;;;;6130514;23;20201;-59
2022/12/23 11:47:53;;;;;;;16.60;1.50;;;;;;;;;;6122811;23;20026;-62
2022/12/23 11:50:26;;;;;;;7.72;1.25;;;;;;;;;;6130343;23;20092;-62
2022/12/23 11:52:55;;;;;;;15.02;1.85;;;;;;;;;;6121629;23;20018;-62
2022/12/23 11:55:24;;;;;;;13.05;1.50;;;;;;;;;;6132730;23;20064;-62
2022/12/23 11:57:52;;;;;;;6.60;1.10;;;;;;;;;;6118417;23;20492;-62
2022/12/23 12:00:22;;;;;;;7.60;1.10;;;;;;;;;;6124820;23;20500;-62
2022/12/23 12:02:53;;;;;;;14.68;1.88;;;;;;;;;;6127409;23;20022;-62
2022/12/23 12:05:22;;;;;;;14.40;1.75;;;;;;;;;;6122648;23;20017;-62
2022/12/23 12:07:51;;;;;;;15.93;1.80;;;;;;;;;;6128737;23;20068;-62
2022/12/23 12:10:21;;;;;;;16.93;2.17;;;;;;;;;;6130011;23;20013;-62
2022/12/23 12:12:51;;;;;;;9.52;1.40;;;;;;;;;;6128872;23;20067;-62
2022/12/23 12:15:33;;;;;;;11.00;1.30;;;;;;;;;;6133911;23;20389;-62
2022/12/23 12:18:01;;;;;;;8.55;1.42;;;;;;;;;;6126127;23;20088;-62
2022/12/23 12:20:30;;;;;;;21.25;2.03;;;;;;;;;;6120443;23;20041;-62
2022/12/23 12:23:00;;;;;;;11.93;1.60;;;;;;;;;;6129483;23;20072;-62
2022/12/23 12:25:35;;;;;;;9.98;1.30;;;;;;;;;;6122593;23;20340;-62
2022/12/23 12:28:09;;;;;;;11.10;1.23;;;;;;;;;;6132423;23;20463;-62
2022/12/23 12:30:49;;;;;;;13.05;1.88;;;;;;;;;;6130815;23;20457;-61
2022/12/23 12:33:19;;;;;;;12.55;1.65;;;;;;;;;;6118706;23;20203;-62
2022/12/23 12:35:48;;;;;;;10.07;1.30;;;;;;;;;;6129340;23;20096;-62
2022/12/23 12:38:24;;;;;;;12.20;1.90;;;;;;;;;;6120842;23;20027;-62
2022/12/23 12:40:55;;;;;;;15.35;1.80;;;;;;;;;;6131757;23;20018;-62
2022/12/23 12:43:26;;;;;;;13.25;2.17;;;;;;;;;;6116436;23;20022;-62
2022/12/23 12:46:00;;;;;;;9.07;1.83;;;;;;;;;;6120663;23;20452;-62
2022/12/23 12:48:32;;;;;;;14.60;1.57;;;;;;;;;;6126995;23;20018;-62
2022/12/23 12:51:02;;;;;;;8.30;1.25;;;;;;;;;;6120978;23;20491;-62
2022/12/23 12:53:32;;;;;;;13.63;1.58;;;;;;;;;;6129134;23;20048;-62
2022/12/23 12:56:02;;;;;;;11.40;1.50;;;;;;;;;;6119609;23;20268;-62
2022/12/23 12:58:29;;;;;;;9.05;1.58;;;;;;;;;;6131593;23;20041;-62
2022/12/23 13:01:03;;;;;;;8.30;1.37;;;;;;;;;;6116123;23;20092;-62
2022/12/23 13:03:45;;;;;;;10.38;1.63;;;;;;;;;;6123401;23;20093;-62
2022/12/23 13:06:17;;;;;;;12.13;1.52;;;;;;;;;;6130672;23;20488;-62
2022/12/23 13:08:55;;;;;;;12.25;1.63;;;;;;;;;;6124005;23;20037;-62
2022/12/23 13:11:30;;;;;;;9.93;1.58;;;;;;;;;;6136018;23;20020;-62
2022/12/23 13:14:00;;;;;;;15.33;1.97;;;;;;;;;;6132754;23;20017;-62
2022/12/23 13:16:32;;;;;;;11.90;1.42;;;;;;;;;;6129853;23;20037;-62
2022/12/23 13:19:03;;;;;;;12.93;1.10;;;;;;;;;;6119603;23;20024;-62
2022/12/23 13:21:33;;;;;;;6.88;0.80;;;;;;;;;;6128194;23;20488;-62
2022/12/23 13:24:07;;;;;;;7.97;1.08;;;;;;;;;;6120046;23;20037;-62
2022/12/23 13:26:49;;;;;;;9.47;1.50;;;;;;;;;;6126450;23;20357;-62
2022/12/23 13:29:37;;;;;;;7.72;1.10;;;;;;;;;;6130538;23;20088;-62
2022/12/23 13:32:10;;;;;;;12.13;1.55;;;;;;;;;;6119552;23;20018;-62
2022/12/23 13:34:47;;;;;;;5.30;1.40;;;;;;;;;;6127852;23;20021;-62
2022/12/23 13:37:18;;;;;;;4.63;0.88;;;;;;;;;;6132196;23;20398;-62
2022/12/23 13:39:53;;;;;;;12.90;1.40;;;;;;;;;;6103340;23;20428;-62
2022/12/23 13:42:25;;;;;;;9.48;1.15;;;;;;;;;;6133290;23;20052;-62
2022/12/23 13:44:53;;;;;;;9.32;1.02;;;;;;;;;;6123077;23;20104;-62
2022/12/23 13:47:24;;;;;;;13.10;1.58;;;;;;;;;;6126224;23;20041;-62
2022/12/23 13:49:55;;;;;;;8.75;1.50;;;;;;;;;;6120068;23;20367;-62
2022/12/23 13:52:29;;;;;;;6.00;0.90;;;;;;;;;;6120100;23;20547;-62
2022/12/23 13:55:00;;;;;;;7.90;1.10;;;;;;;;;;6131112;23;20334;-62
2022/12/23 13:57:37;;;;;;;11.65;2.13;;;;;;;;;;6120944;23;20319;-61
2022/12/23 14:00:22;;;;;;;13.13;1.60;;;;;;;;;;6126796;23;20017;-62
2022/12/23 14:02:50;;;;;;;10.10;1.15;;;;;;;;;;6127944;23;20076;-61
2022/12/23 14:05:32;;;;;;;9.23;1.00;;;;;;;;;;6119584;23;20201;-62
2022/12/23 14:08:01;;;;;;;12.38;1.55;;;;;;;;;;6123582;23;20021;-61
2022/12/23 14:10:31;;;;;;;7.47;0.98;;;;;;;;;;6130805;23;20512;-62
2022/12/23 14:13:00;;;;;;;8.05;1.58;;;;;;;;;;6123804;23;20013;-62
2022/12/23 14:15:34;;;;;;;8.40;1.40;;;;;;;;;;6132422;23;20033;-61
2022/12/23 14:18:09;;;;;;;16.77;1.87;;;;;;;;;;6128023;23;20018;-62
2022/12/23 14:20:44;;;;;;;9.65;1.20;;;;;;;;;;6122832;23;20018;-62
2022/12/23 14:23:20;;;;;;;7.85;1.90;;;;;;;;;;6128724;23;20026;-61
2022/12/23 14:25:55;;;;;;;14.02;1.75;;;;;;;;;;6118042;23;20170;-62
2022/12/23 14:28:38;;;;;;;16.00;1.98;;;;;;;;;;6121348;23;20098;-62
2022/12/23 14:31:05;;;;;;;7.77;1.10;;;;;;;;;;6103702;23;20495;-62
2022/12/23 14:33:36;;;;;;;14.85;1.70;;;;;;;;;;6121459;23;20284;-62
2022/12/23 14:36:21;;;;;;;10.93;1.80;;;;;;;;;;6130460;23;20017;-56
2022/12/23 14:39:04;;;;;;;16.33;1.85;;;;;;;;;;6129653;23;20024;-61
2022/12/23 14:41:38;;;;;;;12.63;1.92;;;;;;;;;;6121349;23;20116;-61
2022/12/23 14:44:19;;;;;;;9.17;2.33;;;;;;;;;;6131741;23;20121;-61
2022/12/23 14:46:56;;;;;;;17.02;1.75;;;;;;;;;;6131360;23;20013;-62
2022/12/23 14:49:45;;;;;;;16.05;1.45;;;;;;;;;;6119940;23;20026;-60
2022/12/23 14:52:31;;;;;;;9.65;1.20;;;;;;;;;;6128243;23;20041;-61
2022/12/23 14:55:29;;;;;;;11.73;1.60;;;;;;;;;;6127901;23;20069;-61
2022/12/23 14:58:03;;;;;;;16.97;1.83;;;;;;;;;;6121314;23;20018;-62
2022/12/23 15:00:44;;;;;;;9.98;1.33;;;;;;;;;;6121787;23;20025;-61
2022/12/23 15:03:12;;;;;;;9.25;1.25;;;;;;;;;;6130799;23;20048;-62
2022/12/23 15:05:40;;;;;;;14.60;2.10;;;;;;;;;;6125774;23;20022;-62
2022/12/23 15:08:16;;;;;;;10.00;0.85;;;;;;;;;;6132142;23;20018;-61
2022/12/23 15:10:46;;;;;;;18.43;2.27;;;;;;;;;;6135142;23;20021;-62
2022/12/23 15:13:17;;;;;;;11.07;1.38;;;;;;;;;;6122462;23;20020;-61
2022/12/23 15:15:50;;;;;;;16.35;1.77;;;;;;;;;;6133473;23;20021;-60
2022/12/23 15:18:27;;;;;;;13.02;1.48;;;;;;;;;;6117724;23;20559;-61
2022/12/23 15:20:58;;;;;;;13.13;2.33;;;;;;;;;;6120960;23;20567;-61
2022/12/23 15:23:26;;;;;;;14.97;1.57;;;;;;;;;;6129404;23;20087;-61
2022/12/23 15:25:55;;;;;;;11.60;2.05;;;;;;;;;;6122993;23;20101;-62
2022/12/23 15:28:28;;;;;;;14.38;1.92;;;;;;;;;;6126983;23;20068;-61
2022/12/23 15:30:56;;;;;;;23.15;2.22;;;;;;;;;;6123966;23;20072;-61
2022/12/23 15:33:27;;;;;;;7.97;1.45;;;;;;;;;;6128572;23;20021;-60